Time;durP1;ratioP1;P1;durP2;ratioP2;P2;SDS_P1;SDS_P2;PMS_P1;PMS_P2;Temp;Humidity;BMP_temperature;BMP_pressure;BME280_temperature;BME280_humidity;BME280_pressure;Samples;Min_cycle;Max_cycle;Signal;HPM_P1;HPM_P2
2021/11/28 00:02:26;;;;;;;15.65;11.43;;;;;;;;;;143745;582;46023;-58
2021/11/28 00:04:54;;;;;;;14.57;9.98;;;;;;;;;;143744;622;46021;-57
2021/11/28 00:07:49;;;;;;;17.62;13.52;;;;;;;;;;143738;582;47010;-57
2021/11/28 00:13:05;;;;;;;16.40;9.65;;;;;;;;;;143744;619;46022;-57
2021/11/28 00:15:32;;;;;;;15.95;12.57;;;;;;;;;;143743;627;46020;-57
2021/11/28 00:17:59;;;;;;;17.77;12.60;;;;;;;;;;143738;585;46023;-57
2021/11/28 00:20:26;;;;;;;17.25;13.07;;;;;;;;;;143739;639;46018;-58
2021/11/28 00:22:53;;;;;;;16.77;13.27;;;;;;;;;;143742;591;46022;-57
2021/11/28 00:25:22;;;;;;;13.20;9.85;;;;;;;;;;143738;583;47019;-58
2021/11/28 00:27:50;;;;;;;15.32;11.82;;;;;;;;;;143739;571;46036;-57
2021/11/28 00:30:20;;;;;;;15.88;11.30;;;;;;;;;;143740;590;46020;-57
2021/11/28 00:32:48;;;;;;;21.35;15.52;;;;;;;;;;143745;632;46021;-57
2021/11/28 00:35:15;;;;;;;19.52;15.43;;;;;;;;;;143743;569;46022;-57
2021/11/28 00:37:42;;;;;;;20.33;16.17;;;;;;;;;;143743;575;46020;-58
2021/11/28 00:40:09;;;;;;;19.27;15.23;;;;;;;;;;143739;573;46021;-57
2021/11/28 00:42:37;;;;;;;20.37;15.82;;;;;;;;;;143744;564;46020;-58
2021/11/28 00:45:05;;;;;;;22.73;16.92;;;;;;;;;;143742;580;46022;-57
2021/11/28 00:47:32;;;;;;;20.62;17.12;;;;;;;;;;143735;569;46919;-57
2021/11/28 00:52:57;;;;;;;17.45;13.90;;;;;;;;;;143741;600;46022;-57
2021/11/28 00:55:24;;;;;;;15.77;13.25;;;;;;;;;;143741;626;46023;-58
2021/11/28 00:57:51;;;;;;;17.10;13.32;;;;;;;;;;143740;617;46020;-58
2021/11/28 01:00:18;;;;;;;17.83;13.30;;;;;;;;;;143738;569;46020;-57
2021/11/28 01:02:45;;;;;;;16.65;13.70;;;;;;;;;;143743;570;46021;-58
2021/11/28 01:05:12;;;;;;;22.25;18.23;;;;;;;;;;143743;585;46022;-58
2021/11/28 01:07:39;;;;;;;19.02;15.43;;;;;;;;;;143739;570;46917;-59
2021/11/28 01:10:10;;;;;;;18.77;15.95;;;;;;;;;;143739;618;46021;-58
2021/11/28 01:12:38;;;;;;;30.02;18.37;;;;;;;;;;143743;574;46020;-60
2021/11/28 01:15:06;;;;;;;16.92;13.18;;;;;;;;;;143742;596;46022;-59
2021/11/28 01:17:34;;;;;;;20.75;15.80;;;;;;;;;;143738;614;46021;-59
2021/11/28 01:20:03;;;;;;;24.92;18.35;;;;;;;;;;143742;590;46020;-59
2021/11/28 01:22:30;;;;;;;27.73;18.17;;;;;;;;;;143746;586;46020;-59
2021/11/28 01:24:57;;;;;;;26.92;16.35;;;;;;;;;;143742;615;46023;-60
2021/11/28 01:27:24;;;;;;;19.95;14.13;;;;;;;;;;143741;569;46020;-59
2021/11/28 01:29:52;;;;;;;25.75;16.83;;;;;;;;;;143739;627;46020;-60
2021/11/28 01:32:19;;;;;;;21.12;14.10;;;;;;;;;;143743;583;46021;-60
2021/11/28 01:34:46;;;;;;;26.45;16.42;;;;;;;;;;143743;640;46022;-60
2021/11/28 01:37:13;;;;;;;21.95;15.98;;;;;;;;;;143741;617;46020;-60
2021/11/28 01:39:40;;;;;;;21.87;14.20;;;;;;;;;;143738;602;46021;-61
2021/11/28 01:42:07;;;;;;;20.23;14.13;;;;;;;;;;143744;621;46020;-60
2021/11/28 01:44:34;;;;;;;19.62;13.23;;;;;;;;;;143745;644;46022;-62
2021/11/28 01:47:01;;;;;;;20.33;13.98;;;;;;;;;;143742;641;46917;-60
2021/11/28 01:49:28;;;;;;;18.98;12.30;;;;;;;;;;143741;601;46020;-60
2021/11/28 01:51:56;;;;;;;20.25;13.68;;;;;;;;;;143741;615;46020;-61
2021/11/28 01:54:23;;;;;;;18.73;13.75;;;;;;;;;;143743;617;46022;-61
2021/11/28 01:56:51;;;;;;;14.98;11.23;;;;;;;;;;143742;606;46020;-60
2021/11/28 01:59:18;;;;;;;15.57;11.00;;;;;;;;;;143743;588;46020;-60
2021/11/28 02:01:46;;;;;;;20.50;13.40;;;;;;;;;;143744;646;46021;-60
2021/11/28 02:04:17;;;;;;;21.60;15.50;;;;;;;;;;143743;607;46022;-60
2021/11/28 02:06:46;;;;;;;27.87;18.73;;;;;;;;;;143741;592;46020;-60
2021/11/28 02:09:14;;;;;;;25.23;16.62;;;;;;;;;;143741;596;46021;-59
2021/11/28 02:11:46;;;;;;;20.27;14.18;;;;;;;;;;143745;564;46020;-59
2021/11/28 02:14:13;;;;;;;24.63;16.42;;;;;;;;;;143743;566;46022;-58
2021/11/28 02:16:40;;;;;;;28.42;18.33;;;;;;;;;;143740;635;46021;-59
2021/11/28 02:19:07;;;;;;;33.20;20.27;;;;;;;;;;143741;594;46020;-59
2021/11/28 02:21:34;;;;;;;39.58;23.02;;;;;;;;;;143742;568;46020;-59
2021/11/28 02:24:01;;;;;;;38.20;22.30;;;;;;;;;;143740;585;46022;-59
2021/11/28 02:26:29;;;;;;;37.67;21.85;;;;;;;;;;143740;584;46020;-59
2021/11/28 02:28:56;;;;;;;28.45;16.60;;;;;;;;;;143741;565;46020;-58
2021/11/28 02:31:23;;;;;;;21.02;15.23;;;;;;;;;;143746;633;46021;-59
2021/11/28 02:33:51;;;;;;;20.35;13.13;;;;;;;;;;143742;592;47020;-59
2021/11/28 02:36:18;;;;;;;16.90;11.00;;;;;;;;;;143740;575;46020;-58
2021/11/28 02:38:45;;;;;;;14.43;10.77;;;;;;;;;;143742;582;46020;-58
2021/11/28 02:41:12;;;;;;;20.67;11.73;;;;;;;;;;143745;578;46020;-58
2021/11/28 02:43:40;;;;;;;15.77;11.40;;;;;;;;;;143745;622;46022;-58
2021/11/28 02:46:09;;;;;;;21.12;12.85;;;;;;;;;;143741;648;46028;-59
2021/11/28 02:48:37;;;;;;;19.30;13.13;;;;;;;;;;143741;587;46020;-58
2021/11/28 02:51:05;;;;;;;16.62;12.75;;;;;;;;;;143745;601;46020;-58
2021/11/28 02:53:32;;;;;;;16.15;9.27;;;;;;;;;;143743;584;46048;-58
2021/11/28 02:56:02;;;;;;;14.25;8.10;;;;;;;;;;143741;675;46020;-58
2021/11/28 02:58:30;;;;;;;10.32;7.70;;;;;;;;;;143741;671;46020;-58
2021/11/28 03:01:02;;;;;;;14.95;9.02;;;;;;;;;;143746;621;46020;-58
2021/11/28 03:03:29;;;;;;;15.63;10.80;;;;;;;;;;143744;577;46023;-58
2021/11/28 03:05:56;;;;;;;16.50;11.27;;;;;;;;;;143740;569;46020;-58
2021/11/28 03:08:23;;;;;;;14.65;10.07;;;;;;;;;;143741;618;46020;-58
2021/11/28 03:10:53;;;;;;;18.40;10.15;;;;;;;;;;143743;573;46021;-59
2021/11/28 03:13:33;;;;;;;18.60;11.85;;;;;;;;;;143742;644;47020;-58
2021/11/28 03:16:04;;;;;;;21.73;12.60;;;;;;;;;;143741;566;46030;-58
2021/11/28 03:18:32;;;;;;;20.00;12.27;;;;;;;;;;143741;658;46021;-58
2021/11/28 03:21:11;;;;;;;18.25;9.77;;;;;;;;;;143745;564;46020;-58
2021/11/28 03:23:39;;;;;;;14.98;9.85;;;;;;;;;;143743;651;46050;-58
2021/11/28 03:26:09;;;;;;;13.48;9.50;;;;;;;;;;143740;640;46020;-58
2021/11/28 03:28:38;;;;;;;16.80;10.98;;;;;;;;;;143742;625;46020;-58
2021/11/28 03:31:05;;;;;;;13.75;9.13;;;;;;;;;;143745;640;46020;-58
2021/11/28 03:33:32;;;;;;;14.15;8.80;;;;;;;;;;143744;574;46023;-57
2021/11/28 03:36:00;;;;;;;10.23;7.10;;;;;;;;;;143743;587;46020;-58
2021/11/28 03:38:27;;;;;;;15.35;7.57;;;;;;;;;;143741;572;46020;-58
2021/11/28 03:40:54;;;;;;;11.85;7.97;;;;;;;;;;143746;600;46020;-58
2021/11/28 03:43:21;;;;;;;12.85;9.05;;;;;;;;;;143743;567;46022;-58
2021/11/28 03:45:48;;;;;;;15.50;9.52;;;;;;;;;;143742;577;46021;-58
2021/11/28 03:48:15;;;;;;;17.10;10.52;;;;;;;;;;143740;580;46020;-58
2021/11/28 03:50:43;;;;;;;13.60;9.45;;;;;;;;;;143746;563;46020;-57
2021/11/28 03:53:10;;;;;;;12.13;8.50;;;;;;;;;;143743;577;47021;-57
2021/11/28 03:55:38;;;;;;;13.02;8.93;;;;;;;;;;143738;569;47010;-57
2021/11/28 03:58:06;;;;;;;15.85;9.15;;;;;;;;;;143740;566;46020;-56
2021/11/28 04:00:34;;;;;;;12.35;8.30;;;;;;;;;;143746;659;46021;-57
2021/11/28 04:03:03;;;;;;;15.43;8.52;;;;;;;;;;143741;579;47020;-56
2021/11/28 04:05:30;;;;;;;12.50;8.10;;;;;;;;;;143741;612;46020;-56
2021/11/28 04:07:57;;;;;;;14.15;7.62;;;;;;;;;;143741;565;46020;-56
2021/11/28 04:10:24;;;;;;;10.30;6.97;;;;;;;;;;143744;585;46020;-55
2021/11/28 04:12:52;;;;;;;10.73;7.30;;;;;;;;;;143744;606;47034;-56
2021/11/28 04:15:19;;;;;;;12.50;7.50;;;;;;;;;;143740;566;46023;-56
2021/11/28 04:17:46;;;;;;;12.60;7.12;;;;;;;;;;143742;589;46906;-56
2021/11/28 04:20:14;;;;;;;11.75;6.18;;;;;;;;;;143743;574;46022;-56
2021/11/28 04:22:41;;;;;;;8.85;5.28;;;;;;;;;;143744;578;46020;-55
2021/11/28 04:25:11;;;;;;;9.77;5.28;;;;;;;;;;143740;569;46022;-57
2021/11/28 04:27:39;;;;;;;8.52;5.85;;;;;;;;;;143740;564;46018;-56
2021/11/28 04:30:08;;;;;;;15.70;6.93;;;;;;;;;;143745;577;46022;-56
2021/11/28 04:32:35;;;;;;;9.88;5.87;;;;;;;;;;143742;565;46020;-55
2021/11/28 04:35:03;;;;;;;18.67;14.73;;;;;;;;;;143743;573;46022;-56
2021/11/28 04:37:30;;;;;;;28.38;20.83;;;;;;;;;;143741;596;46018;-56
2021/11/28 04:39:57;;;;;;;36.45;26.92;;;;;;;;;;143745;608;46023;-56
2021/11/28 04:42:24;;;;;;;21.40;17.33;;;;;;;;;;143743;605;46020;-57
2021/11/28 04:44:51;;;;;;;21.35;16.17;;;;;;;;;;143740;658;46023;-56
2021/11/28 04:47:19;;;;;;;42.35;33.10;;;;;;;;;;143739;651;46019;-56
2021/11/28 04:49:48;;;;;;;25.83;19.85;;;;;;;;;;143742;570;46022;-56
2021/11/28 04:52:15;;;;;;;22.87;18.60;;;;;;;;;;143745;598;46020;-56
2021/11/28 04:54:42;;;;;;;33.75;25.88;;;;;;;;;;143742;636;46022;-56
2021/11/28 04:57:09;;;;;;;33.08;27.37;;;;;;;;;;143743;573;46018;-57
2021/11/28 04:59:36;;;;;;;21.40;16.00;;;;;;;;;;143744;572;46022;-57
2021/11/28 05:02:03;;;;;;;15.60;11.35;;;;;;;;;;143743;570;46040;-57
2021/11/28 05:04:30;;;;;;;14.75;9.50;;;;;;;;;;143741;591;46022;-57
2021/11/28 05:06:57;;;;;;;13.77;10.68;;;;;;;;;;143740;576;46018;-57
2021/11/28 05:09:24;;;;;;;16.48;12.37;;;;;;;;;;143743;612;46023;-57
2021/11/28 05:11:52;;;;;;;15.07;11.32;;;;;;;;;;143744;565;46020;-57
2021/11/28 05:14:19;;;;;;;19.23;13.40;;;;;;;;;;143740;570;46023;-57
2021/11/28 05:16:46;;;;;;;20.92;15.23;;;;;;;;;;143741;624;46019;-57
2021/11/28 05:19:13;;;;;;;19.12;13.65;;;;;;;;;;143744;585;46022;-57
2021/11/28 05:21:41;;;;;;;20.33;15.80;;;;;;;;;;143742;575;47019;-57
2021/11/28 05:24:08;;;;;;;17.75;12.63;;;;;;;;;;143743;595;46022;-57
2021/11/28 05:26:35;;;;;;;13.40;9.60;;;;;;;;;;143740;607;46018;-57
2021/11/28 05:29:03;;;;;;;14.63;8.32;;;;;;;;;;143744;579;46022;-57
2021/11/28 05:31:30;;;;;;;11.95;9.10;;;;;;;;;;143742;559;47018;-57
2021/11/28 05:33:57;;;;;;;9.13;7.32;;;;;;;;;;143740;574;46022;-57
2021/11/28 05:36:24;;;;;;;10.52;7.62;;;;;;;;;;143740;581;46018;-57
2021/11/28 05:38:51;;;;;;;6.87;5.22;;;;;;;;;;143744;610;46023;-57
2021/11/28 05:41:19;;;;;;;11.12;7.65;;;;;;;;;;143743;614;46020;-57
2021/11/28 05:43:47;;;;;;;15.88;11.80;;;;;;;;;;143738;569;47010;-57
2021/11/28 05:46:14;;;;;;;14.02;11.05;;;;;;;;;;143742;627;46019;-57
2021/11/28 05:48:41;;;;;;;14.32;11.55;;;;;;;;;;143745;617;46022;-57
2021/11/28 05:51:09;;;;;;;14.25;11.23;;;;;;;;;;143744;656;46020;-57
2021/11/28 05:53:36;;;;;;;14.18;10.80;;;;;;;;;;143740;567;46023;-57
2021/11/28 05:56:03;;;;;;;12.35;10.13;;;;;;;;;;143741;596;46018;-56
2021/11/28 05:58:30;;;;;;;12.65;10.90;;;;;;;;;;143744;588;46022;-56
2021/11/28 06:00:57;;;;;;;16.30;10.73;;;;;;;;;;143742;565;46021;-56
2021/11/28 06:03:24;;;;;;;14.07;10.45;;;;;;;;;;143739;600;47010;-56
2021/11/28 06:05:51;;;;;;;14.87;10.57;;;;;;;;;;143740;631;46018;-56
2021/11/28 06:08:18;;;;;;;12.23;9.68;;;;;;;;;;143744;577;46023;-56
2021/11/28 06:10:45;;;;;;;16.87;9.98;;;;;;;;;;143741;574;46020;-55
2021/11/28 06:13:13;;;;;;;14.30;10.23;;;;;;;;;;143738;596;46022;-55
2021/11/28 06:15:40;;;;;;;13.95;10.20;;;;;;;;;;143739;570;46019;-55
2021/11/28 06:18:07;;;;;;;13.02;9.20;;;;;;;;;;143744;569;46022;-55
2021/11/28 06:20:34;;;;;;;13.38;9.52;;;;;;;;;;143740;578;46020;-55
2021/11/28 06:23:01;;;;;;;16.23;12.05;;;;;;;;;;143738;661;47010;-55
2021/11/28 06:25:28;;;;;;;18.20;14.38;;;;;;;;;;143740;569;46018;-55
2021/11/28 06:27:55;;;;;;;18.42;14.30;;;;;;;;;;143744;585;46022;-56
2021/11/28 06:30:22;;;;;;;35.15;31.48;;;;;;;;;;143737;570;48011;-55
2021/11/28 06:32:49;;;;;;;40.70;35.55;;;;;;;;;;143739;607;46032;-55
2021/11/28 06:35:16;;;;;;;35.17;30.83;;;;;;;;;;143739;584;46018;-55
2021/11/28 06:37:46;;;;;;;26.73;19.70;;;;;;;;;;143741;619;46023;-55
2021/11/28 06:40:13;;;;;;;22.58;19.55;;;;;;;;;;143742;571;46020;-55
2021/11/28 06:42:40;;;;;;;14.05;11.60;;;;;;;;;;143741;662;46022;-54
2021/11/28 06:45:07;;;;;;;16.20;14.23;;;;;;;;;;143738;569;46019;-54
2021/11/28 06:47:34;;;;;;;25.25;21.55;;;;;;;;;;143742;652;46022;-55
2021/11/28 06:50:01;;;;;;;20.12;16.25;;;;;;;;;;143739;579;46020;-55
2021/11/28 06:52:28;;;;;;;16.00;13.25;;;;;;;;;;143741;704;46023;-56
2021/11/28 06:54:55;;;;;;;19.75;15.95;;;;;;;;;;143740;615;46018;-55
2021/11/28 06:57:22;;;;;;;16.40;14.50;;;;;;;;;;143736;671;48022;-55
2021/11/28 06:59:49;;;;;;;16.62;13.93;;;;;;;;;;143736;661;47020;-55
2021/11/28 07:02:16;;;;;;;18.08;16.17;;;;;;;;;;143740;566;45919;-55
2021/11/28 07:04:43;;;;;;;13.77;11.50;;;;;;;;;;143739;662;46018;-55
2021/11/28 07:07:10;;;;;;;14.82;12.52;;;;;;;;;;143743;581;46023;-54
2021/11/28 07:09:38;;;;;;;14.77;10.73;;;;;;;;;;143741;579;46020;-55
2021/11/28 07:12:05;;;;;;;11.60;10.40;;;;;;;;;;143739;569;46022;-54
2021/11/28 07:14:32;;;;;;;13.70;10.05;;;;;;;;;;143736;569;46019;-54
2021/11/28 07:17:00;;;;;;;12.18;9.20;;;;;;;;;;143740;626;46022;-54
2021/11/28 07:19:27;;;;;;;13.25;10.20;;;;;;;;;;143741;576;46020;-54
2021/11/28 07:21:54;;;;;;;14.68;10.57;;;;;;;;;;143737;640;47010;-54
2021/11/28 07:24:21;;;;;;;14.70;11.02;;;;;;;;;;143741;583;46018;-54
2021/11/28 07:26:48;;;;;;;12.70;9.40;;;;;;;;;;143742;611;46022;-54
2021/11/28 07:29:15;;;;;;;11.80;7.50;;;;;;;;;;143741;590;46020;-54
2021/11/28 07:31:42;;;;;;;12.13;7.30;;;;;;;;;;143738;627;46022;-53
2021/11/28 07:34:10;;;;;;;11.25;6.53;;;;;;;;;;143739;573;46018;-53
2021/11/28 07:36:37;;;;;;;7.53;5.62;;;;;;;;;;143744;638;46022;-52
2021/11/28 07:39:07;;;;;;;7.12;4.53;;;;;;;;;;143741;567;46020;-52
2021/11/28 07:41:35;;;;;;;7.85;4.43;;;;;;;;;;143740;571;46022;-52
2021/11/28 07:44:02;;;;;;;12.40;5.15;;;;;;;;;;143740;608;46018;-53
2021/11/28 07:46:29;;;;;;;8.40;4.25;;;;;;;;;;143743;596;46022;-52
2021/11/28 07:48:56;;;;;;;11.65;5.90;;;;;;;;;;143741;619;47018;-52
2021/11/28 07:51:23;;;;;;;12.88;6.45;;;;;;;;;;143737;566;46023;-52
2021/11/28 07:53:51;;;;;;;13.45;6.22;;;;;;;;;;143739;626;46018;-53
2021/11/28 07:56:20;;;;;;;10.95;6.45;;;;;;;;;;143744;607;46022;-54
2021/11/28 07:58:47;;;;;;;15.00;6.00;;;;;;;;;;143741;604;46020;-53
2021/11/28 08:01:14;;;;;;;15.48;6.55;;;;;;;;;;143737;594;47010;-53
2021/11/28 08:03:42;;;;;;;16.23;8.02;;;;;;;;;;143739;569;46018;-53
2021/11/28 08:06:10;;;;;;;13.15;7.40;;;;;;;;;;143743;585;46022;-53
2021/11/28 08:08:37;;;;;;;8.55;6.97;;;;;;;;;;143741;627;46021;-53
2021/11/28 08:11:05;;;;;;;10.15;6.10;;;;;;;;;;143738;697;46022;-53
2021/11/28 08:13:32;;;;;;;9.55;6.07;;;;;;;;;;143739;594;46018;-52
2021/11/28 08:15:59;;;;;;;10.90;5.90;;;;;;;;;;143743;591;46023;-51
2021/11/28 08:18:26;;;;;;;8.93;6.03;;;;;;;;;;143740;576;47020;-51
2021/11/28 08:20:53;;;;;;;8.02;5.57;;;;;;;;;;143738;644;46023;-51
2021/11/28 08:23:20;;;;;;;7.50;4.97;;;;;;;;;;143739;588;46018;-52
2021/11/28 08:25:47;;;;;;;8.95;4.90;;;;;;;;;;143744;704;46022;-52
2021/11/28 08:28:14;;;;;;;8.05;4.72;;;;;;;;;;143739;664;47039;-52
2021/11/28 08:30:41;;;;;;;10.10;5.07;;;;;;;;;;143738;604;46023;-51
2021/11/28 08:33:09;;;;;;;7.45;4.72;;;;;;;;;;143739;780;46018;-52
2021/11/28 08:35:36;;;;;;;9.25;4.70;;;;;;;;;;143743;602;46022;-52
2021/11/28 08:38:04;;;;;;;10.15;5.15;;;;;;;;;;143742;587;46021;-52
2021/11/28 08:40:33;;;;;;;12.80;5.10;;;;;;;;;;143740;622;46022;-52
2021/11/28 08:43:00;;;;;;;7.37;4.15;;;;;;;;;;143738;590;46018;-51
2021/11/28 08:45:27;;;;;;;7.28;4.28;;;;;;;;;;143742;608;46023;-51
2021/11/28 08:47:54;;;;;;;8.05;4.25;;;;;;;;;;143740;624;46020;-51
2021/11/28 08:50:21;;;;;;;6.78;4.20;;;;;;;;;;143740;578;46023;-50
2021/11/28 08:52:48;;;;;;;6.10;4.28;;;;;;;;;;143734;584;46019;-51
2021/11/28 08:55:17;;;;;;;5.78;4.30;;;;;;;;;;143743;572;46022;-51
2021/11/28 08:57:46;;;;;;;5.10;3.47;;;;;;;;;;143741;586;46020;-51
2021/11/28 09:00:15;;;;;;;4.45;3.75;;;;;;;;;;143740;597;46023;-51
2021/11/28 09:02:42;;;;;;;6.05;3.15;;;;;;;;;;143739;578;46018;-52
2021/11/28 09:05:09;;;;;;;5.05;3.25;;;;;;;;;;143743;569;46022;-51
2021/11/28 09:07:36;;;;;;;8.73;3.45;;;;;;;;;;143741;624;46021;-50
2021/11/28 09:10:04;;;;;;;8.38;4.55;;;;;;;;;;143740;569;46022;-51
2021/11/28 09:12:31;;;;;;;19.83;13.10;;;;;;;;;;143741;575;46018;-53
2021/11/28 09:14:57;;;;;;;10.27;6.12;;;;;;;;;;143743;587;46023;-52
2021/11/28 09:17:24;;;;;;;23.55;16.40;;;;;;;;;;143742;592;46020;-53
2021/11/28 09:20:02;;;;;;;24.87;16.30;;;;;;;;;;143739;592;46023;-53
2021/11/28 09:25:34;;;;;;;22.58;15.25;;;;;;;;;;143742;638;46022;-53
2021/11/28 09:28:04;;;;;;;19.77;13.95;;;;;;;;;;143736;622;46020;-53
2021/11/28 09:30:31;;;;;;;19.00;11.82;;;;;;;;;;143739;616;46023;-53
2021/11/28 09:33:00;;;;;;;13.13;8.35;;;;;;;;;;143738;581;46018;-52
2021/11/28 09:35:27;;;;;;;13.90;7.87;;;;;;;;;;143743;614;46022;-52
2021/11/28 09:37:55;;;;;;;11.32;6.68;;;;;;;;;;143741;635;46035;-52
2021/11/28 09:40:23;;;;;;;14.77;7.12;;;;;;;;;;143740;625;46022;-52
2021/11/28 09:42:55;;;;;;;7.90;5.35;;;;;;;;;;143740;608;46018;-52
2021/11/28 09:45:23;;;;;;;7.50;5.18;;;;;;;;;;143745;633;46023;-52
2021/11/28 09:47:51;;;;;;;11.68;5.07;;;;;;;;;;143742;620;46046;-52
2021/11/28 09:50:19;;;;;;;9.13;5.05;;;;;;;;;;143737;581;47012;-52
2021/11/28 09:52:49;;;;;;;9.85;4.95;;;;;;;;;;143739;623;46019;-52
2021/11/28 09:55:17;;;;;;;10.40;5.53;;;;;;;;;;143744;566;46022;-53
2021/11/28 09:57:45;;;;;;;9.50;5.00;;;;;;;;;;143742;933;46020;-52
2021/11/28 10:00:14;;;;;;;8.93;4.40;;;;;;;;;;143732;592;48022;-52
2021/11/28 10:02:41;;;;;;;8.40;5.10;;;;;;;;;;143739;588;46018;-52
2021/11/28 10:05:11;;;;;;;8.32;4.65;;;;;;;;;;143742;609;46022;-52
2021/11/28 10:07:46;;;;;;;7.97;4.20;;;;;;;;;;143740;634;47018;-52
2021/11/28 10:10:15;;;;;;;11.20;4.75;;;;;;;;;;143741;591;46022;-52
2021/11/28 10:12:45;;;;;;;6.82;4.18;;;;;;;;;;143740;606;46018;-52
2021/11/28 10:15:21;;;;;;;7.55;4.72;;;;;;;;;;143743;569;46023;-52
2021/11/28 10:17:48;;;;;;;6.78;4.28;;;;;;;;;;143740;581;47018;-52
2021/11/28 10:20:21;;;;;;;6.78;3.53;;;;;;;;;;143738;628;46921;-52
2021/11/28 10:22:49;;;;;;;5.75;3.87;;;;;;;;;;143741;639;46018;-52
2021/11/28 10:25:31;;;;;;;6.05;4.30;;;;;;;;;;143744;596;46022;-52
2021/11/28 10:28:09;;;;;;;5.40;3.25;;;;;;;;;;143740;569;46020;-52
2021/11/28 10:30:46;;;;;;;6.53;3.30;;;;;;;;;;143741;574;46022;-52
2021/11/28 10:33:16;;;;;;;5.95;3.40;;;;;;;;;;143739;577;46018;-53
2021/11/28 10:36:03;;;;;;;5.53;3.53;;;;;;;;;;143741;601;46023;-53
2021/11/28 10:38:35;;;;;;;8.02;3.75;;;;;;;;;;143741;639;46049;-53
2021/11/28 10:41:03;;;;;;;6.85;3.47;;;;;;;;;;143741;575;46022;-53
2021/11/28 10:43:40;;;;;;;4.93;3.22;;;;;;;;;;143740;629;46019;-53
2021/11/28 10:46:27;;;;;;;5.50;3.60;;;;;;;;;;143746;577;46022;-53
2021/11/28 10:49:09;;;;;;;4.82;2.85;;;;;;;;;;143742;580;46020;-53
2021/11/28 10:51:37;;;;;;;5.15;2.97;;;;;;;;;;143739;632;46023;-53
2021/11/28 10:54:35;;;;;;;4.35;3.20;;;;;;;;;;143740;582;46018;-53
2021/11/28 10:57:27;;;;;;;6.70;3.37;;;;;;;;;;143743;591;46024;-53
2021/11/28 10:59:59;;;;;;;5.65;3.30;;;;;;;;;;143741;587;46021;-53
2021/11/28 11:02:34;;;;;;;5.25;3.00;;;;;;;;;;143738;590;46022;-53
2021/11/28 11:05:05;;;;;;;5.72;3.25;;;;;;;;;;143740;633;46018;-53
2021/11/28 11:07:51;;;;;;;4.78;2.33;;;;;;;;;;143744;564;46023;-53
2021/11/28 11:10:21;;;;;;;5.80;2.95;;;;;;;;;;143741;632;47018;-53
2021/11/28 11:12:49;;;;;;;6.05;3.00;;;;;;;;;;143739;594;46023;-53
2021/11/28 11:15:44;;;;;;;4.80;3.17;;;;;;;;;;143737;570;46018;-53
2021/11/28 11:18:15;;;;;;;8.77;3.42;;;;;;;;;;143743;567;46022;-53
2021/11/28 11:20:50;;;;;;;6.32;3.05;;;;;;;;;;143739;645;46021;-53
2021/11/28 11:23:37;;;;;;;6.87;2.97;;;;;;;;;;143740;566;46022;-53
2021/11/28 11:26:19;;;;;;;7.47;3.58;;;;;;;;;;143737;600;46018;-53
2021/11/28 11:29:01;;;;;;;5.43;3.00;;;;;;;;;;143745;569;46023;-53
2021/11/28 11:31:27;;;;;;;7.00;3.28;;;;;;;;;;143739;580;47020;-53
2021/11/28 11:33:55;;;;;;;7.37;3.90;;;;;;;;;;143738;646;46023;-53
2021/11/28 11:36:23;;;;;;;6.95;3.50;;;;;;;;;;143742;577;46019;-53
2021/11/28 11:38:51;;;;;;;9.27;3.70;;;;;;;;;;143743;566;46022;-52
2021/11/28 11:41:19;;;;;;;8.35;3.37;;;;;;;;;;143738;618;47020;-52
2021/11/28 11:43:46;;;;;;;4.03;2.97;;;;;;;;;;143738;639;46023;-53
2021/11/28 11:46:16;;;;;;;10.93;3.83;;;;;;;;;;143740;613;46018;-53
2021/11/28 11:48:44;;;;;;;10.70;3.95;;;;;;;;;;143743;569;46022;-53
2021/11/28 11:51:11;;;;;;;9.63;3.20;;;;;;;;;;143741;668;46021;-53
2021/11/28 11:53:37;;;;;;;10.30;3.42;;;;;;;;;;143744;578;46020;-53
2021/11/28 11:56:10;;;;;;;6.07;3.50;;;;;;;;;;143738;565;46020;-53
2021/11/28 11:59:05;;;;;;;11.20;4.03;;;;;;;;;;143743;588;46021;-53
2021/11/28 12:01:31;;;;;;;;;;;;;;;;;;143746;981;46024;-53
2021/11/28 12:03:58;;;;;;;9.73;3.70;;;;;;;;;;143743;624;47013;-53
2021/11/28 12:06:48;;;;;;;15.93;6.87;;;;;;;;;;143738;597;46021;-53
2021/11/28 12:09:25;;;;;;;51.83;35.45;;;;;;;;;;143745;621;46020;-53
2021/11/28 12:11:57;;;;;;;32.45;19.58;;;;;;;;;;143742;627;46022;-53
2021/11/28 12:14:25;;;;;;;42.38;28.27;;;;;;;;;;143738;602;46020;-53
2021/11/28 12:16:52;;;;;;;27.33;14.90;;;;;;;;;;143739;578;46911;-53
2021/11/28 12:19:41;;;;;;;26.05;16.25;;;;;;;;;;143743;567;46020;-53
2021/11/28 12:22:59;;;;;;;34.50;21.05;;;;;;;;;;143741;571;46023;-53
2021/11/28 12:25:48;;;;;;;19.83;11.88;;;;;;;;;;143740;626;46020;-53
2021/11/28 12:28:40;;;;;;;29.35;14.77;;;;;;;;;;143742;629;46021;-53
2021/11/28 12:31:12;;;;;;;15.75;10.15;;;;;;;;;;143743;608;46020;-53
2021/11/28 12:34:11;;;;;;;20.45;9.93;;;;;;;;;;143741;564;47021;-53
2021/11/28 12:36:47;;;;;;;14.45;5.37;;;;;;;;;;143739;616;47012;-53
2021/11/28 12:39:37;;;;;;;14.68;6.53;;;;;;;;;;143739;628;46020;-53
2021/11/28 12:42:10;;;;;;;12.98;7.00;;;;;;;;;;143742;570;46022;-53
2021/11/28 12:44:58;;;;;;;11.25;5.35;;;;;;;;;;143742;631;46022;-53
2021/11/28 12:47:30;;;;;;;17.37;7.22;;;;;;;;;;143739;580;46020;-53
2021/11/28 12:50:17;;;;;;;13.80;6.75;;;;;;;;;;143734;601;47021;-53
2021/11/28 12:52:50;;;;;;;15.25;6.65;;;;;;;;;;143743;569;46020;-53
2021/11/28 12:55:26;;;;;;;12.05;4.75;;;;;;;;;;143741;591;46022;-53
2021/11/28 12:58:19;;;;;;;12.95;5.37;;;;;;;;;;143740;611;46021;-53
2021/11/28 13:00:50;;;;;;;11.10;5.40;;;;;;;;;;143737;586;46020;-53
2021/11/28 13:03:22;;;;;;;8.80;4.80;;;;;;;;;;143744;604;46020;-53
2021/11/28 13:05:56;;;;;;;10.38;5.00;;;;;;;;;;143741;564;46023;-53
2021/11/28 13:08:31;;;;;;;;;;;;;;;;;;143743;973;46029;-53
2021/11/28 13:11:08;;;;;;;20.58;4.30;;;;;;;;;;143743;696;46020;-53
2021/11/28 13:13:38;;;;;;;15.05;5.00;;;;;;;;;;143745;732;46020;-53
2021/11/28 13:16:08;;;;;;;10.90;4.28;;;;;;;;;;143743;784;46022;-53
2021/11/28 13:18:37;;;;;;;11.70;4.78;;;;;;;;;;143738;636;47917;-52
2021/11/28 13:21:25;;;;;;;11.57;4.95;;;;;;;;;;143740;569;46020;-53
2021/11/28 13:23:57;;;;;;;12.25;4.80;;;;;;;;;;143738;622;46022;-53
2021/11/28 13:26:26;;;;;;;11.18;5.03;;;;;;;;;;143743;850;46022;-53
2021/11/28 13:28:58;;;;;;;11.30;4.65;;;;;;;;;;143739;611;46020;-53
2021/11/28 13:31:25;;;;;;;10.77;5.03;;;;;;;;;;143739;611;46020;-53
2021/11/28 13:34:00;;;;;;;12.23;4.95;;;;;;;;;;143741;573;46020;-53
2021/11/28 13:36:53;;;;;;;13.52;5.40;;;;;;;;;;143742;651;47020;-53
2021/11/28 13:39:22;;;;;;;15.80;6.43;;;;;;;;;;143739;708;46020;-53
2021/11/28 13:41:51;;;;;;;14.10;5.97;;;;;;;;;;143739;580;46021;-53
2021/11/28 13:44:21;;;;;;;14.20;4.80;;;;;;;;;;143745;796;46020;-53
2021/11/28 13:46:53;;;;;;;9.63;4.37;;;;;;;;;;143742;591;46022;-53
2021/11/28 13:49:31;;;;;;;10.25;4.07;;;;;;;;;;143742;870;46021;-53
2021/11/28 13:52:02;;;;;;;15.60;4.55;;;;;;;;;;143740;682;46020;-53
2021/11/28 13:54:52;;;;;;;11.52;4.60;;;;;;;;;;143744;810;46020;-53
2021/11/28 13:57:24;;;;;;;10.82;4.47;;;;;;;;;;143736;661;46025;-53
2021/11/28 13:59:56;;;;;;;11.65;4.12;;;;;;;;;;143736;732;49012;-53
2021/11/28 14:02:39;;;;;;;11.32;4.75;;;;;;;;;;143740;596;46020;-53
2021/11/28 14:05:08;;;;;;;12.73;4.65;;;;;;;;;;143743;631;46021;-53
2021/11/28 14:07:44;;;;;;;11.05;4.10;;;;;;;;;;143740;612;47012;-53
2021/11/28 14:10:26;;;;;;;14.07;4.62;;;;;;;;;;143740;580;46021;-54
2021/11/28 14:12:56;;;;;;;14.27;4.70;;;;;;;;;;143742;628;46021;-53
2021/11/28 14:15:34;;;;;;;12.57;5.15;;;;;;;;;;143746;574;46020;-54
2021/11/28 14:18:09;;;;;;;12.52;4.70;;;;;;;;;;143743;584;46022;-54
2021/11/28 14:20:37;;;;;;;;;;;;;;;;;;143745;974;46020;-54
2021/11/28 14:23:07;;;;;;;13.40;4.45;;;;;;;;;;143746;578;46022;-54
2021/11/28 14:25:41;;;;;;;12.93;4.30;;;;;;;;;;143745;670;46018;-53
2021/11/28 14:28:36;;;;;;;8.70;4.18;;;;;;;;;;143744;604;46023;-53
2021/11/28 14:31:12;;;;;;;13.77;4.80;;;;;;;;;;143742;580;46020;-53
2021/11/28 14:33:45;;;;;;;14.18;4.40;;;;;;;;;;143741;594;46020;-54
2021/11/28 14:36:39;;;;;;;7.87;4.20;;;;;;;;;;143745;638;46020;-53
2021/11/28 14:39:11;;;;;;;15.48;4.82;;;;;;;;;;143741;619;46022;-53
2021/11/28 14:41:44;;;;;;;10.82;4.70;;;;;;;;;;143740;620;47012;-53
2021/11/28 14:44:18;;;;;;;17.42;5.37;;;;;;;;;;143741;589;46020;-53
2021/11/28 14:46:45;;;;;;;16.00;5.50;;;;;;;;;;143745;581;47020;-53
2021/11/28 14:49:21;;;;;;;10.27;4.28;;;;;;;;;;143744;578;46023;-53
2021/11/28 14:52:13;;;;;;;11.98;4.55;;;;;;;;;;143740;569;47012;-53
2021/11/28 14:54:44;;;;;;;11.63;4.55;;;;;;;;;;143741;565;46022;-53
2021/11/28 14:57:17;;;;;;;10.20;4.47;;;;;;;;;;143745;607;46021;-53